Brookhaven, NY (11719)

12:41 PM EDT on May 06, 2015 (GMT -0400)
Wino's neighborhood | | Change Station
CLOSE
Current Station
Personal Weather Station
Location: Patchogue, NY
Elevation: 43 ft
Nearby Weather Stations

Elev 43 ft 40.77 °N, 72.96 °W | Updated 3 seconds ago

Overcast
Overcast
63.7 °F
Feels Like 63.7 °F
N
5.1
Wind Variable Wind from ENE
Gusts 7.4 mph

Today
High -- | Low -- °F
--% Chance of Precip.
Yesterday
High -- | Low -- °F
Precip. -- in
5:44 AM 7:52 PM
Waning Gibbous, 93% visible
Pressure 30.29 in
Visibility 10.0 miles
Clouds Overcast 7000 ft
Dew Point 47 °F
Humidity 54%
Rainfall 0.00 in
Snow Depth Not available.
UV 3 out of 12
Pollen 8.80 out of 12
Air Quality Not available.
Flu Activity Widespread
METAR KHWV 061556Z AUTO 02005KT 10SM OVC070 17/06 A3029 RMK AO2 RAE33 SLP256 P0000 T01670056 TSNO

More Conditions Fewer Conditions

Pressure 30.29 in
Visibility 10.0 miles
Clouds Overcast 7000 ft
Dew Point 47 °F
Humidity 54%
Rainfall 0.00 in
Snow Depth Not available.
UV 3 out of 12
Pollen 8.80 out of 12
Air Quality Not available.
Flu Activity Widespread
METAR KHWV 061556Z AUTO 02005KT 10SM OVC070 17/06 A3029 RMK AO2 RAE33 SLP256 P0000 T01670056 TSNO

More Conditions Fewer Conditions

10-Day Weather Forecast

Almanac

Astronomy

May. 06, 2015 Rise Set
Actual Time
Civil Twilight
Nautical Twilight
Astronomical Twilight
Moon
Length of Visible Light
Length of Day
Tomorrow will be .
, % of the Moon is Illuminated

Today's Extremes

State Highs State Lows

Community

WunderPhotos

Upload Photos

1,818,949 photos uploaded!

WunderBlogs® & News

Nearby

Air Quality

  Air Quality AQ Index Pollutant
Not available.

Snow Depth

Station Depth Elevation

Earthquake Activity

City Distance Mag. Time & Date
Minimum magnitude displayed is 2.5.

Coastal Water Temperatures

Place Temperature

Stations

Nearby Weather Stations

Station Location Temp. Windchill Dew Point Humidity Wind Precip. Elev Updated Type